Time;durP1;ratioP1;P1;durP2;ratioP2;P2;SDS_P1;SDS_P2;PMS_P1;PMS_P2;Temp;Humidity;BMP_temperature;BMP_pressure;BME280_temperature;BME280_humidity;BME280_pressure;Samples;Min_cycle;Max_cycle;Signal;HPM_P1;HPM_P2
2022/10/12 00:01:01;;;;;;;13.70;6.90;;;;;;;16.72;55.15;102640.72;5033699;28;20068;-69
2022/10/12 00:03:27;;;;;;;16.85;7.53;;;;;;;16.82;54.69;102641.06;5034539;28;20116;-69
2022/10/12 00:06:14;;;;;;;14.98;7.68;;;;;;;16.78;54.91;102633.56;5034054;28;20529;-70
2022/10/12 00:08:42;;;;;;;12.80;7.05;;;;;;;16.56;55.06;102636.66;5034316;28;20061;-70
2022/10/12 00:11:12;;;;;;;16.55;7.00;;;;;;;16.67;54.74;102635.09;5034631;28;20029;-70
2022/10/12 00:13:37;;;;;;;14.38;6.90;;;;;;;16.55;55.93;102635.00;5034719;28;20037;-69
2022/10/12 00:16:05;;;;;;;15.30;6.95;;;;;;;16.47;55.66;102640.66;5034264;28;20040;-70
2022/10/12 00:18:31;;;;;;;14.38;5.90;;;;;;;16.60;55.72;102635.19;5034217;28;20033;-70
2022/10/12 00:21:15;;;;;;;10.40;5.93;;;;;;;16.65;55.75;102640.75;5034472;28;20045;-69
2022/10/12 00:23:42;;;;;;;18.17;6.22;;;;;;;16.73;54.92;102634.22;5034694;28;20041;-69
2022/10/12 00:26:11;;;;;;;22.65;6.55;;;;;;;16.71;55.44;102643.66;5035227;28;20061;-69
2022/10/12 00:28:37;;;;;;;13.98;5.63;;;;;;;16.56;56.17;102641.25;5016136;28;20440;-68
2022/10/12 00:31:14;;;;;;;14.27;5.68;;;;;;;16.63;54.55;102637.44;5034003;28;20096;-70
2022/10/12 00:33:40;;;;;;;16.80;5.82;;;;;;;16.67;55.41;102635.94;5034209;28;20048;-69
2022/10/12 00:36:22;;;;;;;20.10;6.30;;;;;;;16.62;55.39;102630.38;5032440;28;20037;-68
2022/10/12 00:38:49;;;;;;;13.65;5.57;;;;;;;16.44;55.63;102634.84;5034119;28;20026;-70
2022/10/12 00:41:17;;;;;;;14.38;6.03;;;;;;;16.37;56.11;102639.50;5034231;28;20126;-70
2022/10/12 00:43:44;;;;;;;19.45;6.13;;;;;;;16.25;55.24;102636.66;5034616;28;20029;-68
2022/10/12 00:46:35;;;;;;;16.38;6.10;;;;;;;16.33;55.23;102636.38;5033942;28;20041;-69
2022/10/12 00:49:24;;;;;;;16.25;5.90;;;;;;;16.21;55.10;102635.44;5034189;28;20460;-69
2022/10/12 00:51:57;;;;;;;13.80;7.22;;;;;;;16.22;55.21;102628.94;5014166;28;20045;-68
2022/10/12 00:54:28;;;;;;;12.75;6.47;;;;;;;16.08;55.57;102637.41;5014115;28;20045;-69
2022/10/12 00:56:54;;;;;;;14.07;6.85;;;;;;;15.94;55.35;102644.75;5014301;28;20038;-68
2022/10/12 00:59:32;;;;;;;10.98;6.97;;;;;;;15.79;56.71;102638.78;5033937;28;20393;-69
2022/10/12 01:01:58;;;;;;;19.27;7.20;;;;;;;15.59;57.07;102647.00;5033900;28;20049;-71
2022/10/12 01:04:24;;;;;;;18.58;7.13;;;;;;;15.67;56.21;102643.22;5033761;28;20096;-68
2022/10/12 01:06:50;;;;;;;19.65;7.15;;;;;;;15.60;56.91;102637.00;5033567;28;20038;-69
2022/10/12 01:09:16;;;;;;;14.13;7.40;;;;;;;15.66;56.36;102631.53;5033249;28;20049;-69
2022/10/12 01:11:41;;;;;;;15.88;6.72;;;;;;;15.46;57.28;102635.38;5033008;28;20037;-69
2022/10/12 01:14:07;;;;;;;15.30;7.15;;;;;;;15.48;56.80;102634.13;5032961;28;20122;-69
2022/10/12 01:16:45;;;;;;;16.10;8.25;;;;;;;15.49;56.72;102627.66;5032038;28;20041;-69
2022/10/12 01:19:29;;;;;;;19.83;9.38;;;;;;;15.37;56.97;102623.91;5032279;28;20116;-71
2022/10/12 01:22:02;;;;;;;19.40;7.13;;;;;;;15.37;56.66;102623.91;5032324;28;20045;-69
2022/10/12 01:24:40;;;;;;;19.13;9.50;;;;;;;15.36;56.73;102621.41;5032327;28;20045;-70
2022/10/12 01:27:21;;;;;;;23.20;8.57;;;;;;;15.27;57.50;102623.50;5031894;28;20029;-69
2022/10/12 01:30:04;;;;;;;20.50;9.07;;;;;;;15.40;56.48;102628.06;5032119;28;20048;-70
2022/10/12 01:32:29;;;;;;;14.68;8.18;;;;;;;15.33;56.06;102627.28;5039886;28;20099;-68
2022/10/12 01:35:04;;;;;;;15.13;6.68;;;;;;;15.25;56.04;102624.78;5033008;28;20508;-68
2022/10/12 01:37:52;;;;;;;17.48;7.68;;;;;;;15.15;56.04;102624.41;5032217;28;20156;-68
2022/10/12 01:40:44;;;;;;;25.08;7.82;;;;;;;15.09;55.92;102617.13;5032759;28;20034;-68
2022/10/12 01:43:09;;;;;;;15.05;6.93;;;;;;;15.00;56.39;102615.69;5031825;28;20045;-68
2022/10/12 01:45:35;;;;;;;13.75;7.07;;;;;;;15.08;56.33;102618.16;5030240;28;20109;-68
2022/10/12 01:48:03;;;;;;;20.50;7.65;;;;;;;14.95;56.48;102610.91;5031682;28;20374;-69
2022/10/12 01:50:48;;;;;;;10.35;6.60;;;;;;;15.06;56.27;102614.81;5031316;28;20052;-69
2022/10/12 01:53:20;;;;;;;8.13;5.85;;;;;;;15.13;55.92;102612.94;5031818;28;20025;-68
2022/10/12 01:55:50;;;;;;;21.00;7.70;;;;;;;15.24;55.34;102613.13;5032207;28;20025;-67
2022/10/12 01:58:45;;;;;;;22.88;8.30;;;;;;;15.38;55.57;102611.19;5031273;28;20497;-69
2022/10/12 02:01:34;;;;;;;20.02;8.55;;;;;;;15.22;56.11;102617.06;4950773;28;20275;-68
2022/10/12 02:04:20;;;;;;;20.45;9.00;;;;;;;15.34;55.81;102612.66;4950715;28;20047;-70
2022/10/12 02:06:57;;;;;;;25.30;9.30;;;;;;;15.53;55.80;102604.50;4950906;28;20080;-69
2022/10/12 02:09:28;;;;;;;16.60;7.75;;;;;;;15.37;55.83;102604.13;4950898;28;20436;-68
2022/10/12 02:11:57;;;;;;;17.20;8.93;;;;;;;15.39;55.98;102607.47;4950974;28;20086;-69
2022/10/12 02:14:29;;;;;;;15.80;7.45;;;;;;;15.33;56.18;102606.41;4950325;28;20061;-69
2022/10/12 02:16:58;;;;;;;15.25;7.18;;;;;;;15.25;55.81;102605.84;4950895;29;20051;-69
2022/10/12 02:19:30;;;;;;;28.02;8.00;;;;;;;15.03;56.71;102602.56;4950727;28;20044;-68
2022/10/12 02:21:59;;;;;;;14.35;7.07;;;;;;;14.97;57.12;102608.81;4966818;28;20138;-68
2022/10/12 02:24:27;;;;;;;12.25;7.05;;;;;;;15.07;56.05;102603.81;4950829;28;20062;-68
2022/10/12 02:26:53;;;;;;;18.60;8.27;;;;;;;15.04;56.56;102593.38;4950411;28;20054;-70
2022/10/12 02:29:23;;;;;;;14.85;6.80;;;;;;;15.00;56.52;102591.31;4951996;28;20539;-69
2022/10/12 02:31:58;;;;;;;11.93;6.47;;;;;;;14.87;56.20;102593.00;4950863;29;20083;-70
2022/10/12 02:34:41;;;;;;;23.33;6.85;;;;;;;14.83;56.54;102594.47;4951021;28;20622;-69
2022/10/12 02:37:30;;;;;;;20.05;7.80;;;;;;;14.86;56.85;102587.78;4975386;28;20049;-70
2022/10/12 02:40:16;;;;;;;17.98;6.63;;;;;;;14.73;56.59;102588.66;5031660;28;20136;-68
2022/10/12 02:42:49;;;;;;;17.25;7.47;;;;;;;14.96;56.25;102577.34;5031224;28;20485;-70
2022/10/12 02:45:17;;;;;;;13.60;7.70;;;;;;;14.96;55.51;102578.19;5031335;28;20094;-68
2022/10/12 02:47:46;;;;;;;16.35;6.78;;;;;;;14.79;56.04;102576.16;5030754;28;20437;-70
2022/10/12 02:50:12;;;;;;;13.98;6.45;;;;;;;14.70;56.41;102578.22;5046663;28;20108;-69
2022/10/12 02:52:38;;;;;;;9.40;5.57;;;;;;;14.90;56.03;102576.34;5030823;28;20045;-71
2022/10/12 02:55:04;;;;;;;15.07;6.28;;;;;;;15.05;55.51;102569.84;5030737;28;20044;-70
2022/10/12 02:57:29;;;;;;;9.95;5.57;;;;;;;14.91;55.80;102567.19;5029265;28;20497;-68
2022/10/12 02:59:55;;;;;;;15.77;7.40;;;;;;;14.78;56.94;102564.47;5030379;28;20045;-69
2022/10/12 03:02:20;;;;;;;11.63;6.18;;;;;;;14.79;56.31;102557.19;5030489;28;20552;-69
2022/10/12 03:04:46;;;;;;;12.95;5.40;;;;;;;14.73;56.42;102558.88;5030847;28;20478;-69
2022/10/12 03:07:11;;;;;;;11.88;5.30;;;;;;;14.89;56.14;102557.59;5030714;28;20037;-67
2022/10/12 03:09:37;;;;;;;11.55;6.28;;;;;;;14.82;55.94;102563.03;5030901;28;20110;-70
2022/10/12 03:12:02;;;;;;;14.60;6.50;;;;;;;14.73;56.50;102552.63;5029046;28;20125;-69
2022/10/12 03:14:29;;;;;;;11.32;5.28;;;;;;;14.63;56.64;102546.81;5030656;28;20022;-70
2022/10/12 03:16:55;;;;;;;8.38;5.38;;;;;;;14.61;56.36;102552.44;5031506;28;20116;-69
2022/10/12 03:19:20;;;;;;;9.18;5.10;;;;;;;14.43;57.08;102552.25;5030522;28;20125;-68
2022/10/12 03:21:45;;;;;;;11.48;5.90;;;;;;;14.59;56.81;102553.69;5029145;28;20128;-69
2022/10/12 03:24:11;;;;;;;15.10;7.57;;;;;;;14.54;56.34;102546.22;5030638;28;20068;-70
2022/10/12 03:26:36;;;;;;;11.65;6.40;;;;;;;14.56;55.75;102549.56;5032571;28;20033;-68
2022/10/12 03:29:02;;;;;;;13.32;6.03;;;;;;;14.30;57.00;102554.13;5035388;28;20094;-68
2022/10/12 03:31:27;;;;;;;16.55;5.82;;;;;;;14.26;57.09;102555.53;5034707;28;20057;-70
2022/10/12 03:33:52;;;;;;;13.35;5.90;;;;;;;14.40;56.49;102549.97;5015819;28;20125;-71
2022/10/12 03:36:18;;;;;;;8.48;5.35;;;;;;;14.32;56.65;102546.63;5014811;28;20127;-68
2022/10/12 03:38:43;;;;;;;11.13;5.85;;;;;;;14.34;56.63;102545.41;5015182;28;20114;-69
2022/10/12 03:41:09;;;;;;;11.35;6.32;;;;;;;14.13;57.67;102542.88;5015799;28;20489;-70
2022/10/12 03:43:34;;;;;;;10.65;5.93;;;;;;;14.23;56.54;102543.25;5014894;28;20113;-68
2022/10/12 03:46:00;;;;;;;11.02;6.00;;;;;;;14.40;56.50;102543.72;5014672;28;20521;-68
2022/10/12 03:48:25;;;;;;;15.25;6.55;;;;;;;14.26;56.18;102537.44;5019989;28;20079;-68
2022/10/12 03:50:51;;;;;;;8.93;5.57;;;;;;;14.11;56.75;102532.25;5034254;28;20121;-70
2022/10/12 03:53:17;;;;;;;9.27;5.88;;;;;;;14.33;56.16;102541.00;5034259;28;20481;-68
2022/10/12 03:55:43;;;;;;;13.25;6.10;;;;;;;14.29;56.34;102547.06;5034633;28;20052;-68
2022/10/12 03:58:08;;;;;;;11.10;6.00;;;;;;;14.18;56.76;102537.66;5033901;28;20034;-69
2022/10/12 04:00:34;;;;;;;12.63;6.03;;;;;;;14.21;56.18;102539.13;5033947;28;20044;-70
2022/10/12 04:03:01;;;;;;;11.98;6.25;;;;;;;14.21;56.61;102541.81;5033734;28;20049;-68
2022/10/12 04:05:27;;;;;;;9.50;6.07;;;;;;;14.27;56.06;102541.00;5034003;28;20033;-68
2022/10/12 04:07:52;;;;;;;14.00;5.93;;;;;;;14.16;56.54;102537.03;5034486;28;20485;-69
2022/10/12 04:10:18;;;;;;;11.82;6.30;;;;;;;14.13;56.80;102537.47;5033956;28;20036;-69
2022/10/12 04:12:44;;;;;;;14.60;6.30;;;;;;;14.18;56.72;102536.81;5033896;28;20106;-67
2022/10/12 04:15:09;;;;;;;7.45;5.35;;;;;;;14.11;56.76;102540.34;5033686;28;20482;-68
2022/10/12 04:17:35;;;;;;;10.85;5.38;;;;;;;14.15;56.13;102535.38;5032373;28;20037;-69
2022/10/12 04:20:00;;;;;;;15.90;6.63;;;;;;;14.08;56.84;102540.78;5035602;28;20034;-69
2022/10/12 04:22:25;;;;;;;12.27;5.28;;;;;;;14.05;56.31;102535.75;5033660;28;20054;-70
2022/10/12 04:24:51;;;;;;;15.73;6.05;;;;;;;13.98;56.85;102542.22;5033321;28;20136;-69
2022/10/12 04:27:16;;;;;;;10.38;5.07;;;;;;;14.05;56.00;102541.16;5033518;28;20049;-69
2022/10/12 04:29:41;;;;;;;9.73;5.63;;;;;;;13.84;57.21;102538.66;5033175;28;20116;-69
2022/10/12 04:32:08;;;;;;;9.18;5.53;;;;;;;13.74;57.27;102540.06;5033550;28;20405;-70
2022/10/12 04:34:34;;;;;;;11.82;5.18;;;;;;;13.86;56.39;102541.97;5033131;28;20033;-70
2022/10/12 04:37:01;;;;;;;9.88;5.60;;;;;;;13.84;56.55;102538.66;5030560;28;20053;-68
2022/10/12 04:39:27;;;;;;;10.80;5.40;;;;;;;13.74;56.78;102543.63;5032723;28;20060;-68
2022/10/12 04:41:52;;;;;;;8.38;4.82;;;;;;;13.75;56.31;102541.75;5032875;28;20030;-68
2022/10/12 04:44:17;;;;;;;14.45;6.53;;;;;;;13.72;56.01;102542.19;5031245;28;20028;-70
2022/10/12 04:46:43;;;;;;;13.93;5.78;;;;;;;13.72;55.98;102539.47;5031698;28;20436;-71
2022/10/12 04:49:08;;;;;;;14.73;5.97;;;;;;;13.66;55.98;102545.69;5030378;28;20068;-68
2022/10/12 04:51:33;;;;;;;16.65;5.10;;;;;;;13.64;55.96;102542.38;5030413;28;20529;-69
2022/10/12 04:53:59;;;;;;;14.93;5.20;;;;;;;13.50;56.62;102544.19;5030441;28;20497;-70
2022/10/12 04:56:24;;;;;;;10.73;4.97;;;;;;;13.43;56.87;102546.03;5030940;28;20144;-68
2022/10/12 04:58:49;;;;;;;9.20;5.80;;;;;;;13.34;56.92;102546.41;5029201;28;20053;-69
2022/10/12 05:01:15;;;;;;;9.52;5.53;;;;;;;13.33;57.16;102544.72;5031568;28;20402;-70
2022/10/12 05:03:40;;;;;;;13.18;5.60;;;;;;;13.40;56.44;102542.91;5030115;28;20053;-71
2022/10/12 05:06:06;;;;;;;12.30;6.30;;;;;;;13.40;56.07;102538.34;5029467;28;20474;-68
2022/10/12 05:08:31;;;;;;;15.95;5.28;;;;;;;13.43;56.39;102539.78;5030898;28;20499;-69
2022/10/12 05:10:58;;;;;;;10.85;5.85;;;;;;;13.36;56.22;102538.94;5031486;28;20112;-70
2022/10/12 05:13:24;;;;;;;10.27;6.38;;;;;;;13.17;56.10;102544.03;5032781;28;20401;-71
2022/10/12 05:15:49;;;;;;;8.60;5.95;;;;;;;13.22;56.41;102538.06;5034200;28;20484;-69
2022/10/12 05:18:15;;;;;;;8.10;5.75;;;;;;;13.23;56.75;102538.91;5032247;28;20175;-68
2022/10/12 05:20:40;;;;;;;13.82;6.70;;;;;;;13.13;56.91;102542.78;5031125;28;20037;-69
2022/10/12 05:23:05;;;;;;;13.43;6.80;;;;;;;13.27;56.11;102540.97;5033076;28;20481;-70
2022/10/12 05:25:31;;;;;;;16.77;6.50;;;;;;;13.18;55.98;102537.63;5032750;28;20042;-70
2022/10/12 05:27:56;;;;;;;10.05;6.57;;;;;;;12.96;55.87;102538.72;5032369;28;20649;-69
2022/10/12 05:30:22;;;;;;;10.52;6.32;;;;;;;12.84;57.34;102534.91;5029109;28;20057;-68
2022/10/12 05:32:48;;;;;;;13.38;7.10;;;;;;;13.03;56.50;102525.28;5040204;28;20045;-69
2022/10/12 05:35:14;;;;;;;10.65;6.43;;;;;;;13.04;56.03;102529.66;5051840;28;20029;-69
2022/10/12 05:37:39;;;;;;;15.30;6.28;;;;;;;13.05;56.09;102528.63;5038082;28;20052;-70
2022/10/12 05:40:06;;;;;;;13.70;7.10;;;;;;;13.00;55.92;102528.34;5032413;28;20119;-70
2022/10/12 05:42:33;;;;;;;14.38;6.88;;;;;;;12.98;56.25;102525.88;5032294;28;20029;-69
2022/10/12 05:44:58;;;;;;;9.23;5.47;;;;;;;13.02;55.96;102521.72;5031818;28;20041;-68
2022/10/12 05:47:24;;;;;;;8.60;5.90;;;;;;;12.85;56.69;102528.50;5032103;28;20037;-68
2022/10/12 05:49:50;;;;;;;15.40;7.68;;;;;;;12.91;56.90;102522.28;5031248;28;20500;-68
2022/10/12 05:52:15;;;;;;;19.45;8.18;;;;;;;12.98;57.24;102525.88;5031619;28;20541;-69
2022/10/12 05:54:40;;;;;;;13.70;7.68;;;;;;;12.84;57.66;102523.28;5029627;28;20036;-69
2022/10/12 05:57:06;;;;;;;16.55;6.63;;;;;;;13.02;57.11;102534.38;5040795;28;20128;-67
2022/10/12 05:59:31;;;;;;;16.33;7.68;;;;;;;12.99;57.36;102529.41;5030987;28;20038;-69
2022/10/12 06:01:56;;;;;;;14.95;7.20;;;;;;;12.97;57.49;102529.59;5032483;28;20485;-68
2022/10/12 06:04:22;;;;;;;16.08;8.18;;;;;;;13.07;57.25;102524.69;5042442;28;20505;-70
2022/10/12 06:06:47;;;;;;;18.60;8.65;;;;;;;12.87;57.97;102531.84;5051391;28;20493;-69
2022/10/12 06:09:13;;;;;;;16.50;8.15;;;;;;;13.17;56.94;102530.56;5048486;28;20029;-69
2022/10/12 06:11:38;;;;;;;14.52;7.75;;;;;;;13.08;57.32;102522.81;5036424;28;20037;-68
2022/10/12 06:14:04;;;;;;;16.98;8.45;;;;;;;13.26;56.65;102522.28;5033730;28;20547;-69
2022/10/12 06:16:29;;;;;;;18.90;9.43;;;;;;;13.08;57.35;102523.66;5043253;28;20033;-69
2022/10/12 06:18:55;;;;;;;19.13;9.95;;;;;;;13.23;57.28;102524.34;5040372;28;20025;-71
2022/10/12 06:21:21;;;;;;;17.85;9.73;;;;;;;13.23;57.30;102520.00;5038629;28;20041;-70
2022/10/12 06:23:47;;;;;;;21.48;9.48;;;;;;;13.52;56.06;102519.69;5039157;28;20033;-70
2022/10/12 06:26:12;;;;;;;20.55;8.48;;;;;;;13.46;56.63;102521.34;5042038;28;20091;-69
2022/10/12 06:28:37;;;;;;;20.13;10.38;;;;;;;13.62;56.40;102526.34;5030792;28;20049;-68
2022/10/12 06:31:03;;;;;;;11.10;8.98;;;;;;;13.52;57.23;102517.78;5029980;28;20077;-69
2022/10/12 06:33:29;;;;;;;17.02;9.30;;;;;;;13.64;57.22;102518.06;5026840;28;20030;-69
2022/10/12 06:35:55;;;;;;;18.33;8.43;;;;;;;13.66;56.96;102521.38;5041365;28;20060;-68
2022/10/12 06:38:20;;;;;;;23.60;9.70;;;;;;;13.94;56.25;102513.94;5050647;28;20090;-69
2022/10/12 06:40:46;;;;;;;24.48;9.00;;;;;;;13.94;56.59;102516.63;5051394;28;20036;-68
2022/10/12 06:43:12;;;;;;;22.05;10.70;;;;;;;13.82;56.60;102516.41;5050729;28;20044;-67
2022/10/12 06:45:39;;;;;;;21.08;9.98;;;;;;;14.09;56.53;102511.88;5050619;28;20091;-68
2022/10/12 06:48:05;;;;;;;21.52;10.63;;;;;;;14.30;55.74;102503.59;5048607;28;20061;-70
2022/10/12 06:50:30;;;;;;;19.75;10.27;;;;;;;14.23;56.45;102508.09;5030811;28;20454;-69
2022/10/12 06:52:56;;;;;;;20.85;10.82;;;;;;;14.39;56.03;102507.72;5031160;28;20304;-72
2022/10/12 06:55:21;;;;;;;20.27;10.80;;;;;;;14.32;56.20;102511.47;5029521;28;20068;-70
2022/10/12 06:57:46;;;;;;;18.25;10.27;;;;;;;14.43;55.73;102514.38;5030837;28;20041;-69
2022/10/12 07:00:13;;;;;;;23.08;10.75;;;;;;;14.67;55.47;102505.59;5030701;28;20045;-69
2022/10/12 07:02:38;;;;;;;17.02;9.88;;;;;;;14.50;55.82;102504.41;5030750;28;20098;-68
2022/10/12 07:05:05;;;;;;;15.93;9.52;;;;;;;14.35;56.25;102498.34;5031070;28;20041;-69
2022/10/12 07:07:35;;;;;;;16.73;9.30;;;;;;;14.43;55.46;102500.84;5030462;28;20562;-69
2022/10/12 07:10:00;;;;;;;15.48;9.27;;;;;;;14.25;56.03;102492.50;5032406;28;20044;-69
2022/10/12 07:12:26;;;;;;;27.30;11.18;;;;;;;14.33;55.70;102491.53;5030636;28;20045;-68
2022/10/12 07:14:53;;;;;;;19.48;9.60;;;;;;;14.23;55.64;102502.69;5030391;28;20484;-68
2022/10/12 07:17:19;;;;;;;18.08;10.85;;;;;;;14.37;55.52;102509.00;5030742;28;20041;-68
2022/10/12 07:19:44;;;;;;;29.58;10.45;;;;;;;14.20;55.72;102508.53;5030578;28;20037;-69
2022/10/12 07:22:10;;;;;;;27.60;11.07;;;;;;;14.36;55.38;102510.03;5030445;28;20476;-69
2022/10/12 07:24:35;;;;;;;20.30;11.07;;;;;;;14.26;56.35;102515.81;5030518;28;20081;-70
2022/10/12 07:27:06;;;;;;;19.05;10.65;;;;;;;14.33;55.75;102515.84;5030395;28;20069;-69
2022/10/12 07:29:32;;;;;;;20.02;10.73;;;;;;;14.39;55.22;102506.88;5030665;28;20030;-69
2022/10/12 07:31:58;;;;;;;20.70;10.68;;;;;;;14.29;55.58;102510.00;5011610;28;20077;-69
2022/10/12 07:34:24;;;;;;;23.25;12.10;;;;;;;14.37;55.29;102500.88;5010751;28;20498;-68
2022/10/12 07:36:50;;;;;;;21.33;9.90;;;;;;;14.44;55.24;102510.66;5010409;28;20046;-68
2022/10/12 07:39:15;;;;;;;23.02;11.27;;;;;;;14.36;55.27;102501.91;5010596;28;20072;-69
2022/10/12 07:41:40;;;;;;;21.10;9.75;;;;;;;14.30;55.47;102508.16;5010795;28;20040;-68
2022/10/12 07:44:06;;;;;;;19.17;9.00;;;;;;;14.33;55.46;102499.63;5011062;28;20049;-69
2022/10/12 07:46:31;;;;;;;16.42;9.30;;;;;;;14.27;55.89;102503.13;5010523;28;20057;-69
2022/10/12 07:48:56;;;;;;;18.73;9.75;;;;;;;14.48;55.00;102511.06;5010429;28;20553;-69
2022/10/12 07:51:22;;;;;;;18.95;10.02;;;;;;;14.47;55.12;102509.38;5010287;28;20030;-70
2022/10/12 07:53:49;;;;;;;20.80;9.85;;;;;;;14.64;55.05;102513.31;5010421;28;20072;-68
2022/10/12 07:56:14;;;;;;;24.48;11.07;;;;;;;14.55;55.30;102504.59;5010654;28;20064;-69
2022/10/12 07:58:41;;;;;;;24.35;11.18;;;;;;;14.45;56.13;102503.34;5010707;28;20025;-67
2022/10/12 08:01:08;;;;;;;23.33;10.20;;;;;;;14.69;54.95;102502.69;5010589;28;20044;-69
2022/10/12 08:03:33;;;;;;;20.65;10.60;;;;;;;14.72;55.11;102497.66;5010021;28;20045;-69
2022/10/12 08:05:59;;;;;;;23.75;10.95;;;;;;;14.80;54.97;102504.75;5011892;28;20037;-70
2022/10/12 08:08:24;;;;;;;18.10;10.57;;;;;;;14.73;55.12;102512.88;5010563;28;20482;-68
2022/10/12 08:10:50;;;;;;;26.88;10.15;;;;;;;14.60;55.17;102521.00;5010844;28;20486;-68
2022/10/12 08:13:15;;;;;;;20.65;11.10;;;;;;;14.82;54.87;102508.03;5013009;28;20413;-68
2022/10/12 08:15:48;;;;;;;21.52;9.82;;;;;;;14.95;54.39;102514.28;5014085;28;20049;-69
2022/10/12 08:18:13;;;;;;;25.70;10.32;;;;;;;14.87;54.73;102509.09;5013888;28;20240;-69
2022/10/12 08:20:38;;;;;;;17.10;11.25;;;;;;;15.03;54.54;102506.97;5013754;28;20034;-70
2022/10/12 08:23:03;;;;;;;21.33;10.88;;;;;;;15.12;54.66;102509.22;5014032;28;20042;-71
2022/10/12 08:25:29;;;;;;;22.70;11.50;;;;;;;15.06;54.55;102509.22;5013533;28;20068;-70
2022/10/12 08:27:54;;;;;;;23.08;10.80;;;;;;;15.22;54.20;102508.75;5013603;28;20038;-68
2022/10/12 08:30:25;;;;;;;16.05;10.50;;;;;;;15.44;53.68;102507.44;5018774;28;20086;-69
2022/10/12 08:32:50;;;;;;;;;;;;;;;15.41;53.65;102508.66;5033639;28;20082;-70
2022/10/12 08:35:16;;;;;;;19.38;11.23;;;;;;;15.54;53.76;102511.34;5033084;28;20011;-68
2022/10/12 08:37:41;;;;;;;21.33;10.85;;;;;;;15.54;53.43;102505.91;5033596;28;20029;-69
2022/10/12 08:40:09;;;;;;;20.65;10.48;;;;;;;15.72;53.44;102508.72;5033030;28;20080;-70
2022/10/12 08:42:58;;;;;;;44.13;10.32;;;;;;;15.94;52.91;102509.19;5033090;28;20054;-69
2022/10/12 08:45:35;;;;;;;18.75;10.48;;;;;;;15.96;53.08;102515.22;5031475;28;20069;-69
2022/10/12 08:48:18;;;;;;;18.75;9.95;;;;;;;16.09;53.21;102501.56;5031044;28;20115;-68
2022/10/12 08:50:54;;;;;;;23.40;10.82;;;;;;;15.80;54.01;102504.94;5012785;28;20057;-69
2022/10/12 08:53:32;;;;;;;27.30;9.50;;;;;;;16.04;53.59;102511.44;5013398;28;20061;-69
2022/10/12 08:55:58;;;;;;;17.63;9.75;;;;;;;16.39;52.47;102507.16;5013482;28;20042;-71
2022/10/12 08:58:30;;;;;;;21.60;10.32;;;;;;;16.55;52.18;102512.03;5012825;28;20175;-68
2022/10/12 09:01:20;;;;;;;19.25;10.25;;;;;;;16.32;52.56;102499.06;5014725;28;20285;-70
2022/10/12 09:04:19;;;;;;;24.77;9.75;;;;;;;16.41;52.39;102507.75;5012968;28;20393;-68
2022/10/12 09:07:04;;;;;;;17.45;10.02;;;;;;;16.64;51.80;102502.56;5012698;28;20038;-70
2022/10/12 09:10:08;;;;;;;16.35;10.40;;;;;;;16.67;51.91;102508.34;5012991;28;20041;-69
2022/10/12 09:12:33;;;;;;;25.48;10.52;;;;;;;16.38;51.98;102505.47;5012954;28;20493;-69
2022/10/12 09:15:04;;;;;;;30.17;10.95;;;;;;;16.82;50.69;102513.44;5012646;28;20045;-68
2022/10/12 09:17:38;;;;;;;27.27;10.75;;;;;;;16.73;50.69;102500.38;5012941;28;20030;-68
2022/10/12 09:20:29;;;;;;;20.48;9.80;;;;;;;16.63;50.92;102504.44;5012881;28;20041;-69
2022/10/12 09:23:01;;;;;;;15.98;9.55;;;;;;;16.98;51.24;102504.66;4932016;29;20146;-68
2022/10/12 09:25:28;;;;;;;18.40;8.60;;;;;;;16.85;51.50;102509.41;4931571;29;20054;-69
2022/10/12 09:28:05;;;;;;;17.42;9.70;;;;;;;17.27;50.73;102503.06;4932587;29;20403;-69
2022/10/12 09:30:37;;;;;;;18.70;9.07;;;;;;;17.10;49.99;102502.84;4937343;29;20043;-70
2022/10/12 09:33:18;;;;;;;17.55;8.35;;;;;;;17.36;50.49;102504.38;4951312;28;20361;-69
2022/10/12 09:35:45;;;;;;;15.00;8.02;;;;;;;17.15;51.02;102503.00;4951349;28;20047;-71
2022/10/12 09:38:11;;;;;;;22.80;9.10;;;;;;;17.08;50.66;102501.44;4951912;29;20082;-69
2022/10/12 09:40:37;;;;;;;22.77;8.80;;;;;;;17.20;51.02;102494.16;4951330;28;20047;-68
2022/10/12 09:43:03;;;;;;;21.10;8.30;;;;;;;17.53;49.57;102505.47;4951321;28;20050;-68
2022/10/12 09:45:31;;;;;;;19.38;9.77;;;;;;;17.63;49.65;102503.00;4951009;28;20606;-68
2022/10/12 09:48:10;;;;;;;25.73;9.63;;;;;;;17.19;51.63;102501.50;4951168;28;20061;-68
2022/10/12 09:50:43;;;;;;;27.75;10.27;;;;;;;17.27;50.94;102495.75;4950883;28;20063;-68
2022/10/12 09:53:23;;;;;;;24.30;10.07;;;;;;;18.01;49.33;102503.47;4951606;29;20085;-69
2022/10/12 09:56:08;;;;;;;19.88;10.18;;;;;;;17.87;49.47;102502.00;4951226;29;20097;-70
2022/10/12 09:58:41;;;;;;;21.02;9.45;;;;;;;18.54;48.66;102484.34;4950792;28;20119;-69
2022/10/12 10:01:15;;;;;;;21.08;9.25;;;;;;;18.21;48.65;102486.81;5030841;28;20114;-68
2022/10/12 10:03:40;;;;;;;23.10;9.70;;;;;;;18.20;49.39;102477.81;5032008;28;20037;-71
2022/10/12 10:06:06;;;;;;;22.10;9.70;;;;;;;18.30;48.84;102480.78;5031528;28;20095;-70
2022/10/12 10:08:40;;;;;;;24.77;8.23;;;;;;;18.30;48.38;102480.78;5031630;28;20032;-67
2022/10/12 10:11:13;;;;;;;23.73;9.43;;;;;;;17.82;49.17;102482.84;5032212;28;20041;-68
2022/10/12 10:13:47;;;;;;;14.93;8.40;;;;;;;18.65;47.76;102485.41;5032169;28;20482;-70
2022/10/12 10:16:12;;;;;;;14.75;8.25;;;;;;;18.61;48.02;102478.78;5031736;28;20082;-69
2022/10/12 10:19:14;;;;;;;19.70;11.25;;;;;;;18.60;47.89;102482.56;5031042;28;20038;-70
2022/10/12 10:21:40;;;;;;;21.35;11.23;;;;;;;19.04;47.52;102476.44;4989328;28;20057;-72
2022/10/12 10:24:22;;;;;;;16.45;8.85;;;;;;;19.13;46.58;102475.00;4989427;28;20039;-68
2022/10/12 10:26:52;;;;;;;20.48;8.75;;;;;;;19.26;46.94;102475.53;4989081;28;20049;-67
2022/10/12 10:29:39;;;;;;;16.65;8.70;;;;;;;18.79;48.46;102459.59;4989717;28;20061;-74
2022/10/12 10:32:25;;;;;;;19.60;8.43;;;;;;;19.31;46.81;102458.47;4989415;28;20492;-71
2022/10/12 10:35:06;;;;;;;23.50;9.15;;;;;;;18.72;48.40;102454.25;4988995;28;20046;-70
2022/10/12 10:37:32;;;;;;;19.15;8.65;;;;;;;18.77;48.64;102459.00;4988932;28;20177;-71
2022/10/12 10:39:58;;;;;;;22.30;8.75;;;;;;;19.44;46.92;102454.66;4983307;28;20055;-69
2022/10/12 10:42:28;;;;;;;24.38;10.02;;;;;;;19.25;47.71;102453.97;4969568;28;20043;-70
2022/10/12 10:45:03;;;;;;;18.60;8.13;;;;;;;19.65;46.68;102443.84;4969328;28;20030;-68
2022/10/12 10:47:31;;;;;;;14.43;8.05;;;;;;;19.84;45.68;102441.72;4978745;28;20046;-69
2022/10/12 10:50:01;;;;;;;16.48;7.65;;;;;;;19.60;46.96;102442.91;4997952;28;20563;-69
2022/10/12 10:52:29;;;;;;;14.02;7.85;;;;;;;19.92;45.06;102441.31;4989145;28;20042;-72
2022/10/12 10:55:10;;;;;;;20.70;8.32;;;;;;;20.24;45.36;102438.81;4986801;28;20042;-70
2022/10/12 10:57:45;;;;;;;21.63;8.43;;;;;;;20.32;44.52;102441.13;5003702;28;20041;-68
2022/10/12 11:00:15;;;;;;;22.60;9.10;;;;;;;19.68;46.30;102434.34;5030800;28;20038;-70
2022/10/12 11:02:48;;;;;;;24.02;9.02;;;;;;;20.12;45.72;102427.97;5030724;28;20440;-68
2022/10/12 11:05:41;;;;;;;19.67;8.95;;;;;;;19.16;47.27;102433.66;5031065;28;20048;-69
2022/10/12 11:08:24;;;;;;;22.25;8.82;;;;;;;19.80;45.93;102430.47;5031507;28;20088;-69
2022/10/12 11:11:02;;;;;;;26.77;10.25;;;;;;;20.82;44.38;102419.94;5031450;28;20049;-70
2022/10/12 11:13:46;;;;;;;18.95;9.13;;;;;;;21.05;43.39;102408.78;5029867;28;20163;-68
2022/10/12 11:16:26;;;;;;;20.27;8.18;;;;;;;21.15;43.91;102410.81;5030624;28;20060;-70
2022/10/12 11:18:57;;;;;;;22.15;8.23;;;;;;;20.50;44.77;102408.09;5030529;28;20038;-71
2022/10/12 11:21:25;;;;;;;;;;;;;;;21.11;43.40;102407.75;5031318;28;20083;-70
2022/10/12 11:23:58;;;;;;;19.15;8.25;;;;;;;20.99;43.32;102401.59;5030746;28;19913;-72
2022/10/12 11:26:55;;;;;;;16.83;7.55;;;;;;;20.85;42.82;102397.59;5030545;28;20048;-70
2022/10/12 11:29:21;;;;;;;17.63;8.07;;;;;;;21.15;42.37;102400.69;4969131;28;20039;-68